sensor_id;sensor_type;location;lat;lon;timestamp;P1;durP1;ratioP1;P2;durP2;ratioP2
57752;SDS011;43583;53.132;6.574;2024-01-27T00:02:25;13.63;;;1.52;;
57752;SDS011;43583;53.132;6.574;2024-01-27T00:04:51;18.70;;;2.42;;
57752;SDS011;43583;53.132;6.574;2024-01-27T00:07:17;12.30;;;1.30;;
57752;SDS011;43583;53.132;6.574;2024-01-27T00:09:42;8.45;;;0.82;;
57752;SDS011;43583;53.132;6.574;2024-01-27T00:12:08;11.07;;;0.70;;
57752;SDS011;43583;53.132;6.574;2024-01-27T00:14:37;4.15;;;0.82;;
57752;SDS011;43583;53.132;6.574;2024-01-27T00:17:03;8.48;;;1.00;;
57752;SDS011;43583;53.132;6.574;2024-01-27T00:19:29;15.82;;;1.73;;
57752;SDS011;43583;53.132;6.574;2024-01-27T00:21:55;10.20;;;0.80;;
57752;SDS011;43583;53.132;6.574;2024-01-27T00:24:20;10.18;;;0.98;;
57752;SDS011;43583;53.132;6.574;2024-01-27T00:26:46;15.88;;;2.33;;
57752;SDS011;43583;53.132;6.574;2024-01-27T00:29:11;9.02;;;1.15;;
57752;SDS011;43583;53.132;6.574;2024-01-27T00:31:37;15.52;;;1.08;;
57752;SDS011;43583;53.132;6.574;2024-01-27T00:34:02;15.00;;;1.45;;
57752;SDS011;43583;53.132;6.574;2024-01-27T00:36:28;10.88;;;0.75;;
57752;SDS011;43583;53.132;6.574;2024-01-27T00:38:54;7.03;;;0.77;;
57752;SDS011;43583;53.132;6.574;2024-01-27T00:41:19;13.40;;;1.58;;
57752;SDS011;43583;53.132;6.574;2024-01-27T00:43:45;18.77;;;1.50;;
57752;SDS011;43583;53.132;6.574;2024-01-27T00:46:11;15.85;;;1.77;;
57752;SDS011;43583;53.132;6.574;2024-01-27T00:48:36;10.48;;;0.68;;
57752;SDS011;43583;53.132;6.574;2024-01-27T00:51:02;8.20;;;1.15;;
57752;SDS011;43583;53.132;6.574;2024-01-27T00:53:27;14.27;;;1.08;;
57752;SDS011;43583;53.132;6.574;2024-01-27T00:55:53;12.45;;;1.52;;
57752;SDS011;43583;53.132;6.574;2024-01-27T00:58:19;17.05;;;1.38;;
57752;SDS011;43583;53.132;6.574;2024-01-27T01:00:45;20.65;;;1.35;;
57752;SDS011;43583;53.132;6.574;2024-01-27T01:03:10;15.60;;;0.73;;
57752;SDS011;43583;53.132;6.574;2024-01-27T01:05:36;13.77;;;1.00;;
57752;SDS011;43583;53.132;6.574;2024-01-27T01:08:02;8.05;;;1.20;;
57752;SDS011;43583;53.132;6.574;2024-01-27T01:10:28;15.75;;;1.65;;
57752;SDS011;43583;53.132;6.574;2024-01-27T01:12:54;14.13;;;1.05;;
57752;SDS011;43583;53.132;6.574;2024-01-27T01:15:19;15.02;;;1.98;;
57752;SDS011;43583;53.132;6.574;2024-01-27T01:17:45;10.95;;;1.20;;
57752;SDS011;43583;53.132;6.574;2024-01-27T01:20:11;11.27;;;1.52;;
57752;SDS011;43583;53.132;6.574;2024-01-27T01:22:36;7.70;;;1.08;;
57752;SDS011;43583;53.132;6.574;2024-01-27T01:25:02;10.30;;;1.02;;
57752;SDS011;43583;53.132;6.574;2024-01-27T01:27:27;11.27;;;1.08;;
57752;SDS011;43583;53.132;6.574;2024-01-27T01:29:53;10.02;;;0.93;;
57752;SDS011;43583;53.132;6.574;2024-01-27T01:32:19;16.08;;;1.42;;
57752;SDS011;43583;53.132;6.574;2024-01-27T01:34:45;8.15;;;1.13;;
57752;SDS011;43583;53.132;6.574;2024-01-27T01:37:11;17.27;;;2.45;;
57752;SDS011;43583;53.132;6.574;2024-01-27T01:39:38;11.70;;;1.00;;
57752;SDS011;43583;53.132;6.574;2024-01-27T01:42:04;8.82;;;1.35;;
57752;SDS011;43583;53.132;6.574;2024-01-27T01:44:30;8.25;;;1.15;;
57752;SDS011;43583;53.132;6.574;2024-01-27T01:46:56;7.20;;;1.23;;
57752;SDS011;43583;53.132;6.574;2024-01-27T01:49:23;13.77;;;1.65;;
57752;SDS011;43583;53.132;6.574;2024-01-27T01:51:48;11.95;;;1.55;;
57752;SDS011;43583;53.132;6.574;2024-01-27T01:54:14;17.65;;;1.83;;
57752;SDS011;43583;53.132;6.574;2024-01-27T01:56:41;14.48;;;1.80;;
57752;SDS011;43583;53.132;6.574;2024-01-27T01:59:07;9.07;;;1.02;;
57752;SDS011;43583;53.132;6.574;2024-01-27T02:01:33;13.50;;;1.05;;
57752;SDS011;43583;53.132;6.574;2024-01-27T02:03:58;8.88;;;0.95;;
57752;SDS011;43583;53.132;6.574;2024-01-27T02:06:24;9.35;;;0.90;;
57752;SDS011;43583;53.132;6.574;2024-01-27T02:08:50;15.15;;;1.65;;
57752;SDS011;43583;53.132;6.574;2024-01-27T02:11:16;11.90;;;1.33;;
57752;SDS011;43583;53.132;6.574;2024-01-27T02:13:42;12.27;;;1.25;;
57752;SDS011;43583;53.132;6.574;2024-01-27T02:16:08;12.00;;;1.05;;
57752;SDS011;43583;53.132;6.574;2024-01-27T02:18:34;12.00;;;1.40;;
57752;SDS011;43583;53.132;6.574;2024-01-27T02:20:59;11.18;;;1.48;;
57752;SDS011;43583;53.132;6.574;2024-01-27T02:23:25;6.70;;;0.70;;
57752;SDS011;43583;53.132;6.574;2024-01-27T02:25:51;11.38;;;0.75;;
57752;SDS011;43583;53.132;6.574;2024-01-27T02:28:16;12.52;;;0.70;;
57752;SDS011;43583;53.132;6.574;2024-01-27T02:30:42;10.85;;;1.30;;
57752;SDS011;43583;53.132;6.574;2024-01-27T02:33:08;9.60;;;0.95;;
57752;SDS011;43583;53.132;6.574;2024-01-27T02:35:34;7.20;;;1.23;;
57752;SDS011;43583;53.132;6.574;2024-01-27T02:38:00;8.05;;;0.80;;
57752;SDS011;43583;53.132;6.574;2024-01-27T02:40:25;15.80;;;1.35;;
57752;SDS011;43583;53.132;6.574;2024-01-27T02:42:51;14.23;;;2.05;;
57752;SDS011;43583;53.132;6.574;2024-01-27T02:45:17;10.07;;;1.02;;
57752;SDS011;43583;53.132;6.574;2024-01-27T02:47:42;6.47;;;1.05;;
57752;SDS011;43583;53.132;6.574;2024-01-27T02:50:08;11.15;;;1.92;;
57752;SDS011;43583;53.132;6.574;2024-01-27T02:52:34;11.10;;;0.85;;
57752;SDS011;43583;53.132;6.574;2024-01-27T02:55:00;7.47;;;1.48;;
57752;SDS011;43583;53.132;6.574;2024-01-27T02:57:25;19.45;;;1.58;;
57752;SDS011;43583;53.132;6.574;2024-01-27T02:59:51;8.07;;;0.82;;
57752;SDS011;43583;53.132;6.574;2024-01-27T03:02:17;10.90;;;1.17;;
57752;SDS011;43583;53.132;6.574;2024-01-27T03:04:42;10.98;;;0.90;;
57752;SDS011;43583;53.132;6.574;2024-01-27T03:07:08;15.55;;;0.73;;
57752;SDS011;43583;53.132;6.574;2024-01-27T03:09:33;14.52;;;0.95;;
57752;SDS011;43583;53.132;6.574;2024-01-27T03:11:59;13.38;;;0.75;;
57752;SDS011;43583;53.132;6.574;2024-01-27T03:14:24;6.40;;;1.23;;
57752;SDS011;43583;53.132;6.574;2024-01-27T03:16:50;11.18;;;1.33;;
57752;SDS011;43583;53.132;6.574;2024-01-27T03:19:16;12.48;;;1.00;;
57752;SDS011;43583;53.132;6.574;2024-01-27T03:21:41;13.88;;;1.65;;
57752;SDS011;43583;53.132;6.574;2024-01-27T03:24:07;14.02;;;1.25;;
57752;SDS011;43583;53.132;6.574;2024-01-27T03:26:32;8.93;;;1.05;;
57752;SDS011;43583;53.132;6.574;2024-01-27T03:28:58;14.80;;;1.58;;
57752;SDS011;43583;53.132;6.574;2024-01-27T03:31:29;14.65;;;0.80;;
57752;SDS011;43583;53.132;6.574;2024-01-27T03:33:59;10.95;;;1.20;;
57752;SDS011;43583;53.132;6.574;2024-01-27T03:36:25;8.10;;;1.50;;
57752;SDS011;43583;53.132;6.574;2024-01-27T03:38:51;13.73;;;0.90;;
57752;SDS011;43583;53.132;6.574;2024-01-27T03:41:17;12.85;;;0.70;;
57752;SDS011;43583;53.132;6.574;2024-01-27T03:43:42;8.73;;;0.65;;
57752;SDS011;43583;53.132;6.574;2024-01-27T03:46:08;11.10;;;1.35;;
57752;SDS011;43583;53.132;6.574;2024-01-27T03:48:33;9.80;;;0.73;;
57752;SDS011;43583;53.132;6.574;2024-01-27T03:51:02;4.88;;;1.00;;
57752;SDS011;43583;53.132;6.574;2024-01-27T03:53:27;13.80;;;1.48;;
57752;SDS011;43583;53.132;6.574;2024-01-27T03:55:53;12.07;;;1.20;;
57752;SDS011;43583;53.132;6.574;2024-01-27T03:58:19;13.15;;;1.17;;
57752;SDS011;43583;53.132;6.574;2024-01-27T04:00:45;11.27;;;1.05;;
57752;SDS011;43583;53.132;6.574;2024-01-27T04:03:10;9.18;;;0.60;;
57752;SDS011;43583;53.132;6.574;2024-01-27T04:05:36;7.82;;;0.82;;
57752;SDS011;43583;53.132;6.574;2024-01-27T04:08:02;7.57;;;1.10;;
57752;SDS011;43583;53.132;6.574;2024-01-27T04:10:29;9.40;;;1.13;;
57752;SDS011;43583;53.132;6.574;2024-01-27T04:12:55;9.95;;;0.68;;
57752;SDS011;43583;53.132;6.574;2024-01-27T04:15:20;13.82;;;0.80;;
57752;SDS011;43583;53.132;6.574;2024-01-27T04:17:46;11.65;;;1.13;;
57752;SDS011;43583;53.132;6.574;2024-01-27T04:20:11;15.40;;;1.50;;
57752;SDS011;43583;53.132;6.574;2024-01-27T04:22:37;6.90;;;1.00;;
57752;SDS011;43583;53.132;6.574;2024-01-27T04:25:03;6.05;;;0.68;;
57752;SDS011;43583;53.132;6.574;2024-01-27T04:27:29;11.35;;;0.90;;
57752;SDS011;43583;53.132;6.574;2024-01-27T04:29:55;16.77;;;0.80;;
57752;SDS011;43583;53.132;6.574;2024-01-27T04:32:21;12.73;;;2.70;;
57752;SDS011;43583;53.132;6.574;2024-01-27T04:34:47;9.85;;;1.23;;
57752;SDS011;43583;53.132;6.574;2024-01-27T04:37:13;11.43;;;0.98;;
57752;SDS011;43583;53.132;6.574;2024-01-27T04:39:39;10.57;;;1.55;;
57752;SDS011;43583;53.132;6.574;2024-01-27T04:42:04;12.30;;;0.65;;
57752;SDS011;43583;53.132;6.574;2024-01-27T04:44:33;14.57;;;1.40;;
57752;SDS011;43583;53.132;6.574;2024-01-27T04:46:59;14.48;;;0.90;;
57752;SDS011;43583;53.132;6.574;2024-01-27T04:49:25;6.22;;;0.60;;
57752;SDS011;43583;53.132;6.574;2024-01-27T04:51:51;17.70;;;0.55;;
57752;SDS011;43583;53.132;6.574;2024-01-27T04:54:16;10.27;;;0.75;;
57752;SDS011;43583;53.132;6.574;2024-01-27T04:56:42;10.10;;;0.85;;
57752;SDS011;43583;53.132;6.574;2024-01-27T04:59:08;11.55;;;1.00;;
57752;SDS011;43583;53.132;6.574;2024-01-27T05:01:33;14.98;;;1.77;;
57752;SDS011;43583;53.132;6.574;2024-01-27T05:03:59;9.13;;;1.05;;
57752;SDS011;43583;53.132;6.574;2024-01-27T05:06:25;5.90;;;0.70;;
57752;SDS011;43583;53.132;6.574;2024-01-27T05:08:50;10.00;;;1.10;;
57752;SDS011;43583;53.132;6.574;2024-01-27T05:11:24;4.95;;;0.40;;
57752;SDS011;43583;53.132;6.574;2024-01-27T05:13:51;12.85;;;0.82;;
57752;SDS011;43583;53.132;6.574;2024-01-27T05:16:17;10.10;;;1.42;;
57752;SDS011;43583;53.132;6.574;2024-01-27T05:18:42;13.90;;;1.20;;
57752;SDS011;43583;53.132;6.574;2024-01-27T05:21:08;11.10;;;0.73;;
57752;SDS011;43583;53.132;6.574;2024-01-27T05:23:33;12.15;;;1.15;;
57752;SDS011;43583;53.132;6.574;2024-01-27T05:25:59;9.25;;;0.65;;
57752;SDS011;43583;53.132;6.574;2024-01-27T05:28:24;14.70;;;1.90;;
57752;SDS011;43583;53.132;6.574;2024-01-27T05:30:50;9.38;;;1.58;;
57752;SDS011;43583;53.132;6.574;2024-01-27T05:33:15;13.27;;;0.82;;
57752;SDS011;43583;53.132;6.574;2024-01-27T05:35:41;11.23;;;0.73;;
57752;SDS011;43583;53.132;6.574;2024-01-27T05:38:07;6.93;;;0.88;;
57752;SDS011;43583;53.132;6.574;2024-01-27T05:40:33;10.55;;;2.22;;
57752;SDS011;43583;53.132;6.574;2024-01-27T05:42:58;10.35;;;2.00;;
57752;SDS011;43583;53.132;6.574;2024-01-27T05:45:24;7.35;;;0.70;;
57752;SDS011;43583;53.132;6.574;2024-01-27T05:47:51;16.20;;;1.33;;
57752;SDS011;43583;53.132;6.574;2024-01-27T05:50:17;11.35;;;0.93;;
57752;SDS011;43583;53.132;6.574;2024-01-27T05:52:42;10.20;;;1.13;;
57752;SDS011;43583;53.132;6.574;2024-01-27T05:55:08;16.38;;;1.02;;
57752;SDS011;43583;53.132;6.574;2024-01-27T05:57:35;9.15;;;1.00;;
57752;SDS011;43583;53.132;6.574;2024-01-27T06:00:00;11.23;;;0.60;;
57752;SDS011;43583;53.132;6.574;2024-01-27T06:02:26;6.88;;;0.75;;
57752;SDS011;43583;53.132;6.574;2024-01-27T06:04:52;11.35;;;0.93;;
57752;SDS011;43583;53.132;6.574;2024-01-27T06:07:17;9.68;;;0.70;;
57752;SDS011;43583;53.132;6.574;2024-01-27T06:09:43;8.02;;;0.57;;
57752;SDS011;43583;53.132;6.574;2024-01-27T06:12:08;10.57;;;0.85;;
57752;SDS011;43583;53.132;6.574;2024-01-27T06:14:34;11.80;;;0.88;;
57752;SDS011;43583;53.132;6.574;2024-01-27T06:17:00;12.05;;;0.88;;
57752;SDS011;43583;53.132;6.574;2024-01-27T06:19:27;7.07;;;0.68;;
57752;SDS011;43583;53.132;6.574;2024-01-27T06:21:53;7.90;;;0.65;;
57752;SDS011;43583;53.132;6.574;2024-01-27T06:24:19;13.75;;;1.13;;
57752;SDS011;43583;53.132;6.574;2024-01-27T06:26:44;14.07;;;1.55;;
57752;SDS011;43583;53.132;6.574;2024-01-27T06:29:10;11.73;;;0.70;;
57752;SDS011;43583;53.132;6.574;2024-01-27T06:31:36;12.35;;;1.05;;
57752;SDS011;43583;53.132;6.574;2024-01-27T06:34:01;8.55;;;0.90;;
57752;SDS011;43583;53.132;6.574;2024-01-27T06:36:27;6.90;;;0.82;;
57752;SDS011;43583;53.132;6.574;2024-01-27T06:38:53;13.75;;;1.40;;
57752;SDS011;43583;53.132;6.574;2024-01-27T06:41:19;12.68;;;1.00;;
57752;SDS011;43583;53.132;6.574;2024-01-27T06:43:45;18.00;;;2.22;;
57752;SDS011;43583;53.132;6.574;2024-01-27T06:46:10;12.68;;;1.10;;
57752;SDS011;43583;53.132;6.574;2024-01-27T06:48:36;11.18;;;1.00;;
57752;SDS011;43583;53.132;6.574;2024-01-27T06:51:01;7.50;;;0.35;;
57752;SDS011;43583;53.132;6.574;2024-01-27T06:53:28;10.00;;;1.58;;
57752;SDS011;43583;53.132;6.574;2024-01-27T06:55:54;15.43;;;1.42;;
57752;SDS011;43583;53.132;6.574;2024-01-27T06:58:19;10.23;;;0.88;;
57752;SDS011;43583;53.132;6.574;2024-01-27T07:00:45;10.57;;;0.70;;
57752;SDS011;43583;53.132;6.574;2024-01-27T07:03:11;20.75;;;1.10;;
57752;SDS011;43583;53.132;6.574;2024-01-27T07:05:36;6.85;;;0.80;;
57752;SDS011;43583;53.132;6.574;2024-01-27T07:08:06;6.05;;;0.80;;
57752;SDS011;43583;53.132;6.574;2024-01-27T07:10:32;9.30;;;0.60;;
57752;SDS011;43583;53.132;6.574;2024-01-27T07:12:58;14.20;;;1.40;;
57752;SDS011;43583;53.132;6.574;2024-01-27T07:15:23;12.27;;;0.93;;
57752;SDS011;43583;53.132;6.574;2024-01-27T07:17:49;7.50;;;0.52;;
57752;SDS011;43583;53.132;6.574;2024-01-27T07:20:15;4.60;;;0.77;;
57752;SDS011;43583;53.132;6.574;2024-01-27T07:22:41;12.40;;;0.80;;
57752;SDS011;43583;53.132;6.574;2024-01-27T07:25:07;10.65;;;1.00;;
57752;SDS011;43583;53.132;6.574;2024-01-27T07:27:35;12.05;;;1.05;;
57752;SDS011;43583;53.132;6.574;2024-01-27T07:30:00;11.40;;;1.25;;
57752;SDS011;43583;53.132;6.574;2024-01-27T07:32:27;11.20;;;1.05;;
57752;SDS011;43583;53.132;6.574;2024-01-27T07:34:52;15.38;;;0.82;;
57752;SDS011;43583;53.132;6.574;2024-01-27T07:37:18;9.30;;;1.05;;
57752;SDS011;43583;53.132;6.574;2024-01-27T07:39:45;11.05;;;1.10;;
57752;SDS011;43583;53.132;6.574;2024-01-27T07:42:11;19.10;;;1.23;;
57752;SDS011;43583;53.132;6.574;2024-01-27T07:44:37;12.40;;;1.08;;
57752;SDS011;43583;53.132;6.574;2024-01-27T07:47:03;12.23;;;0.95;;
57752;SDS011;43583;53.132;6.574;2024-01-27T07:49:28;15.57;;;1.48;;
57752;SDS011;43583;53.132;6.574;2024-01-27T07:51:54;12.50;;;2.13;;
57752;SDS011;43583;53.132;6.574;2024-01-27T07:54:20;10.43;;;1.90;;
57752;SDS011;43583;53.132;6.574;2024-01-27T07:56:45;9.60;;;1.42;;
57752;SDS011;43583;53.132;6.574;2024-01-27T07:59:12;10.77;;;1.35;;
57752;SDS011;43583;53.132;6.574;2024-01-27T08:01:39;15.43;;;1.38;;
57752;SDS011;43583;53.132;6.574;2024-01-27T08:04:05;13.88;;;1.10;;
57752;SDS011;43583;53.132;6.574;2024-01-27T08:06:31;19.92;;;1.75;;
57752;SDS011;43583;53.132;6.574;2024-01-27T08:08:57;19.40;;;1.70;;
57752;SDS011;43583;53.132;6.574;2024-01-27T08:11:22;6.97;;;1.27;;
57752;SDS011;43583;53.132;6.574;2024-01-27T08:13:49;11.98;;;2.00;;
57752;SDS011;43583;53.132;6.574;2024-01-27T08:16:15;11.80;;;1.70;;
57752;SDS011;43583;53.132;6.574;2024-01-27T08:18:41;12.75;;;1.45;;
57752;SDS011;43583;53.132;6.574;2024-01-27T08:21:09;11.60;;;1.65;;
57752;SDS011;43583;53.132;6.574;2024-01-27T08:23:35;13.82;;;1.30;;
57752;SDS011;43583;53.132;6.574;2024-01-27T08:26:01;16.30;;;1.60;;
57752;SDS011;43583;53.132;6.574;2024-01-27T08:28:27;16.33;;;2.17;;
57752;SDS011;43583;53.132;6.574;2024-01-27T08:30:52;13.75;;;2.17;;
57752;SDS011;43583;53.132;6.574;2024-01-27T08:33:18;20.10;;;2.58;;
57752;SDS011;43583;53.132;6.574;2024-01-27T08:35:46;24.92;;;2.30;;
57752;SDS011;43583;53.132;6.574;2024-01-27T08:38:13;15.63;;;2.03;;
57752;SDS011;43583;53.132;6.574;2024-01-27T08:40:38;16.30;;;2.47;;
57752;SDS011;43583;53.132;6.574;2024-01-27T08:43:04;14.05;;;2.60;;
57752;SDS011;43583;53.132;6.574;2024-01-27T08:45:30;11.73;;;3.15;;
57752;SDS011;43583;53.132;6.574;2024-01-27T08:47:56;17.70;;;2.67;;
57752;SDS011;43583;53.132;6.574;2024-01-27T08:50:22;17.98;;;5.03;;
57752;SDS011;43583;53.132;6.574;2024-01-27T08:52:48;13.63;;;3.10;;
57752;SDS011;43583;53.132;6.574;2024-01-27T08:55:14;16.17;;;3.22;;
57752;SDS011;43583;53.132;6.574;2024-01-27T08:57:41;14.25;;;3.53;;
57752;SDS011;43583;53.132;6.574;2024-01-27T09:00:07;15.40;;;3.30;;
57752;SDS011;43583;53.132;6.574;2024-01-27T09:02:34;11.73;;;3.45;;
57752;SDS011;43583;53.132;6.574;2024-01-27T09:05:00;17.95;;;4.20;;
57752;SDS011;43583;53.132;6.574;2024-01-27T09:07:25;16.02;;;4.85;;
57752;SDS011;43583;53.132;6.574;2024-01-27T09:09:51;15.85;;;3.83;;
57752;SDS011;43583;53.132;6.574;2024-01-27T09:12:16;24.25;;;4.30;;
57752;SDS011;43583;53.132;6.574;2024-01-27T09:14:42;20.15;;;5.10;;
57752;SDS011;43583;53.132;6.574;2024-01-27T09:17:07;21.23;;;4.93;;
57752;SDS011;43583;53.132;6.574;2024-01-27T09:19:33;14.32;;;3.63;;
57752;SDS011;43583;53.132;6.574;2024-01-27T09:21:59;20.85;;;6.30;;
57752;SDS011;43583;53.132;6.574;2024-01-27T09:24:24;20.45;;;6.03;;
57752;SDS011;43583;53.132;6.574;2024-01-27T09:26:50;25.27;;;6.50;;
57752;SDS011;43583;53.132;6.574;2024-01-27T09:29:16;21.17;;;5.13;;
57752;SDS011;43583;53.132;6.574;2024-01-27T09:31:42;16.10;;;5.78;;
57752;SDS011;43583;53.132;6.574;2024-01-27T09:34:08;16.23;;;5.30;;
57752;SDS011;43583;53.132;6.574;2024-01-27T09:36:33;22.13;;;6.07;;
57752;SDS011;43583;53.132;6.574;2024-01-27T09:38:59;10.73;;;4.60;;
57752;SDS011;43583;53.132;6.574;2024-01-27T09:41:25;14.57;;;4.40;;
57752;SDS011;43583;53.132;6.574;2024-01-27T09:43:55;12.63;;;3.63;;
57752;SDS011;43583;53.132;6.574;2024-01-27T09:46:25;11.85;;;4.07;;
57752;SDS011;43583;53.132;6.574;2024-01-27T09:48:52;14.38;;;3.90;;
57752;SDS011;43583;53.132;6.574;2024-01-27T09:51:18;17.00;;;3.97;;
57752;SDS011;43583;53.132;6.574;2024-01-27T09:53:45;18.77;;;3.45;;
57752;SDS011;43583;53.132;6.574;2024-01-27T09:56:10;11.38;;;3.25;;
57752;SDS011;43583;53.132;6.574;2024-01-27T09:58:42;11.88;;;2.88;;
57752;SDS011;43583;53.132;6.574;2024-01-27T10:01:09;11.43;;;3.25;;
57752;SDS011;43583;53.132;6.574;2024-01-27T10:03:36;12.07;;;3.13;;
57752;SDS011;43583;53.132;6.574;2024-01-27T10:06:05;11.02;;;4.25;;
57752;SDS011;43583;53.132;6.574;2024-01-27T10:08:33;16.77;;;3.70;;
57752;SDS011;43583;53.132;6.574;2024-01-27T10:10:59;14.77;;;3.13;;
57752;SDS011;43583;53.132;6.574;2024-01-27T10:13:29;6.80;;;2.38;;
57752;SDS011;43583;53.132;6.574;2024-01-27T10:16:05;10.82;;;3.33;;
57752;SDS011;43583;53.132;6.574;2024-01-27T10:18:32;18.40;;;3.13;;
57752;SDS011;43583;53.132;6.574;2024-01-27T10:20:58;13.30;;;2.50;;
57752;SDS011;43583;53.132;6.574;2024-01-27T10:23:24;9.02;;;2.70;;
57752;SDS011;43583;53.132;6.574;2024-01-27T10:25:50;8.52;;;2.35;;
57752;SDS011;43583;53.132;6.574;2024-01-27T10:28:16;15.93;;;3.55;;
57752;SDS011;43583;53.132;6.574;2024-01-27T10:30:45;16.70;;;4.10;;
57752;SDS011;43583;53.132;6.574;2024-01-27T10:57:39;8.10;;;2.38;;
57752;SDS011;43583;53.132;6.574;2024-01-27T11:00:06;13.35;;;2.42;;
57752;SDS011;43583;53.132;6.574;2024-01-27T11:02:33;18.20;;;3.17;;
57752;SDS011;43583;53.132;6.574;2024-01-27T11:05:00;11.35;;;2.42;;
57752;SDS011;43583;53.132;6.574;2024-01-27T11:07:28;9.48;;;2.92;;
57752;SDS011;43583;53.132;6.574;2024-01-27T11:09:57;11.02;;;2.40;;
57752;SDS011;43583;53.132;6.574;2024-01-27T11:12:22;10.98;;;2.50;;
57752;SDS011;43583;53.132;6.574;2024-01-27T11:14:51;9.65;;;3.63;;
57752;SDS011;43583;53.132;6.574;2024-01-27T11:17:18;14.07;;;2.22;;
57752;SDS011;43583;53.132;6.574;2024-01-27T11:19:44;21.48;;;3.92;;
57752;SDS011;43583;53.132;6.574;2024-01-27T11:22:27;14.57;;;2.20;;
57752;SDS011;43583;53.132;6.574;2024-01-27T11:25:16;13.23;;;2.95;;
57752;SDS011;43583;53.132;6.574;2024-01-27T11:27:42;17.42;;;3.17;;
57752;SDS011;43583;53.132;6.574;2024-01-27T11:30:28;11.57;;;2.28;;
57752;SDS011;43583;53.132;6.574;2024-01-27T11:33:02;9.93;;;3.05;;
57752;SDS011;43583;53.132;6.574;2024-01-27T11:35:29;11.40;;;2.65;;
57752;SDS011;43583;53.132;6.574;2024-01-27T11:37:55;9.75;;;2.20;;
57752;SDS011;43583;53.132;6.574;2024-01-27T11:40:20;16.98;;;3.67;;
57752;SDS011;43583;53.132;6.574;2024-01-27T11:42:56;15.48;;;2.13;;
57752;SDS011;43583;53.132;6.574;2024-01-27T11:45:25;12.30;;;2.83;;
57752;SDS011;43583;53.132;6.574;2024-01-27T11:47:54;14.30;;;2.42;;
57752;SDS011;43583;53.132;6.574;2024-01-27T11:50:20;8.43;;;2.25;;
57752;SDS011;43583;53.132;6.574;2024-01-27T11:52:46;11.95;;;2.53;;
57752;SDS011;43583;53.132;6.574;2024-01-27T11:55:12;14.43;;;2.63;;
57752;SDS011;43583;53.132;6.574;2024-01-27T11:57:41;8.30;;;2.08;;
57752;SDS011;43583;53.132;6.574;2024-01-27T12:00:07;7.63;;;2.70;;
57752;SDS011;43583;53.132;6.574;2024-01-27T12:02:37;10.77;;;3.08;;
57752;SDS011;43583;53.132;6.574;2024-01-27T12:05:03;14.98;;;2.42;;
57752;SDS011;43583;53.132;6.574;2024-01-27T12:07:30;15.98;;;2.58;;
57752;SDS011;43583;53.132;6.574;2024-01-27T12:09:56;15.13;;;1.50;;
57752;SDS011;43583;53.132;6.574;2024-01-27T12:12:21;15.90;;;2.58;;
57752;SDS011;43583;53.132;6.574;2024-01-27T12:14:48;8.93;;;1.98;;
57752;SDS011;43583;53.132;6.574;2024-01-27T12:17:15;9.77;;;1.50;;
57752;SDS011;43583;53.132;6.574;2024-01-27T12:19:45;7.60;;;1.33;;
57752;SDS011;43583;53.132;6.574;2024-01-27T12:24:48;11.05;;;1.58;;
57752;SDS011;43583;53.132;6.574;2024-01-27T12:27:13;11.75;;;2.40;;
57752;SDS011;43583;53.132;6.574;2024-01-27T12:29:40;16.30;;;2.70;;
57752;SDS011;43583;53.132;6.574;2024-01-27T12:32:06;11.32;;;3.28;;
57752;SDS011;43583;53.132;6.574;2024-01-27T12:34:32;10.63;;;2.00;;
57752;SDS011;43583;53.132;6.574;2024-01-27T12:36:58;8.38;;;1.45;;
57752;SDS011;43583;53.132;6.574;2024-01-27T12:39:25;10.45;;;1.95;;
57752;SDS011;43583;53.132;6.574;2024-01-27T12:41:51;19.00;;;2.55;;
57752;SDS011;43583;53.132;6.574;2024-01-27T12:44:17;13.93;;;1.67;;
57752;SDS011;43583;53.132;6.574;2024-01-27T12:46:42;9.20;;;1.40;;
57752;SDS011;43583;53.132;6.574;2024-01-27T12:49:08;12.23;;;1.40;;
57752;SDS011;43583;53.132;6.574;2024-01-27T12:51:33;6.78;;;1.33;;
57752;SDS011;43583;53.132;6.574;2024-01-27T12:53:59;8.05;;;1.67;;
57752;SDS011;43583;53.132;6.574;2024-01-27T12:56:25;9.68;;;1.70;;
57752;SDS011;43583;53.132;6.574;2024-01-27T12:58:50;14.45;;;1.98;;
57752;SDS011;43583;53.132;6.574;2024-01-27T13:01:16;8.75;;;1.15;;
57752;SDS011;43583;53.132;6.574;2024-01-27T13:03:41;9.20;;;1.50;;
57752;SDS011;43583;53.132;6.574;2024-01-27T13:06:07;10.63;;;1.27;;
57752;SDS011;43583;53.132;6.574;2024-01-27T13:08:33;8.15;;;2.15;;
57752;SDS011;43583;53.132;6.574;2024-01-27T13:10:58;7.70;;;0.82;;
57752;SDS011;43583;53.132;6.574;2024-01-27T13:13:24;9.80;;;1.75;;
57752;SDS011;43583;53.132;6.574;2024-01-27T13:15:50;11.05;;;1.80;;
57752;SDS011;43583;53.132;6.574;2024-01-27T13:18:15;6.78;;;1.35;;
57752;SDS011;43583;53.132;6.574;2024-01-27T13:20:41;18.23;;;1.77;;
57752;SDS011;43583;53.132;6.574;2024-01-27T13:23:06;13.93;;;1.42;;
57752;SDS011;43583;53.132;6.574;2024-01-27T13:25:32;8.85;;;1.13;;
57752;SDS011;43583;53.132;6.574;2024-01-27T13:27:58;11.32;;;1.05;;
57752;SDS011;43583;53.132;6.574;2024-01-27T13:30:24;8.73;;;0.73;;
57752;SDS011;43583;53.132;6.574;2024-01-27T13:32:50;10.05;;;1.15;;
57752;SDS011;43583;53.132;6.574;2024-01-27T13:35:16;7.93;;;1.15;;
57752;SDS011;43583;53.132;6.574;2024-01-27T13:37:41;7.35;;;1.73;;
57752;SDS011;43583;53.132;6.574;2024-01-27T13:40:07;10.60;;;1.88;;
57752;SDS011;43583;53.132;6.574;2024-01-27T13:42:36;11.13;;;1.42;;
57752;SDS011;43583;53.132;6.574;2024-01-27T13:45:02;10.05;;;1.20;;
57752;SDS011;43583;53.132;6.574;2024-01-27T13:47:28;5.07;;;0.95;;
57752;SDS011;43583;53.132;6.574;2024-01-27T13:49:54;12.90;;;1.23;;
57752;SDS011;43583;53.132;6.574;2024-01-27T13:52:20;16.20;;;1.73;;
57752;SDS011;43583;53.132;6.574;2024-01-27T13:54:46;8.60;;;1.10;;
57752;SDS011;43583;53.132;6.574;2024-01-27T13:57:11;10.98;;;1.92;;
57752;SDS011;43583;53.132;6.574;2024-01-27T13:59:37;6.78;;;0.85;;
57752;SDS011;43583;53.132;6.574;2024-01-27T14:02:03;10.55;;;1.27;;
57752;SDS011;43583;53.132;6.574;2024-01-27T14:04:29;16.05;;;2.90;;
57752;SDS011;43583;53.132;6.574;2024-01-27T14:06:54;6.35;;;1.63;;
57752;SDS011;43583;53.132;6.574;2024-01-27T14:09:21;10.43;;;0.70;;
57752;SDS011;43583;53.132;6.574;2024-01-27T14:11:50;6.90;;;1.05;;
57752;SDS011;43583;53.132;6.574;2024-01-27T14:14:15;7.70;;;0.90;;
57752;SDS011;43583;53.132;6.574;2024-01-27T14:16:45;9.80;;;1.83;;
57752;SDS011;43583;53.132;6.574;2024-01-27T14:19:12;9.45;;;0.60;;
57752;SDS011;43583;53.132;6.574;2024-01-27T14:21:37;10.80;;;1.88;;
57752;SDS011;43583;53.132;6.574;2024-01-27T14:24:04;8.80;;;0.70;;
57752;SDS011;43583;53.132;6.574;2024-01-27T14:26:31;8.88;;;1.58;;
57752;SDS011;43583;53.132;6.574;2024-01-27T14:28:57;6.80;;;0.50;;
57752;SDS011;43583;53.132;6.574;2024-01-27T14:31:23;3.88;;;0.68;;
57752;SDS011;43583;53.132;6.574;2024-01-27T14:33:49;8.48;;;1.98;;
57752;SDS011;43583;53.132;6.574;2024-01-27T14:36:15;8.18;;;0.98;;
57752;SDS011;43583;53.132;6.574;2024-01-27T14:38:40;7.68;;;1.77;;
57752;SDS011;43583;53.132;6.574;2024-01-27T14:41:06;13.43;;;1.60;;
57752;SDS011;43583;53.132;6.574;2024-01-27T14:43:32;10.23;;;1.50;;
57752;SDS011;43583;53.132;6.574;2024-01-27T14:45:58;10.20;;;1.15;;
57752;SDS011;43583;53.132;6.574;2024-01-27T14:48:24;7.90;;;1.15;;
57752;SDS011;43583;53.132;6.574;2024-01-27T14:50:50;9.82;;;1.30;;
57752;SDS011;43583;53.132;6.574;2024-01-27T14:53:22;10.27;;;2.03;;
57752;SDS011;43583;53.132;6.574;2024-01-27T14:55:48;8.63;;;2.60;;
57752;SDS011;43583;53.132;6.574;2024-01-27T14:58:14;6.55;;;1.90;;
57752;SDS011;43583;53.132;6.574;2024-01-27T15:00:39;8.27;;;0.75;;